sensor_id;sensor_type;location;lat;lon;timestamp;P1;durP1;ratioP1;P2;durP2;ratioP2
79261;SDS011;68699;48.220;16.358;2024-03-22T00:01:26;7.70;;;7.03;;
79261;SDS011;68699;48.220;16.358;2024-03-22T00:03:52;9.07;;;8.27;;
79261;SDS011;68699;48.220;16.358;2024-03-22T00:06:18;8.47;;;7.67;;
79261;SDS011;68699;48.220;16.358;2024-03-22T00:08:44;8.67;;;7.87;;
79261;SDS011;68699;48.220;16.358;2024-03-22T00:11:10;8.97;;;8.13;;
79261;SDS011;68699;48.220;16.358;2024-03-22T00:13:36;8.27;;;7.57;;
79261;SDS011;68699;48.220;16.358;2024-03-22T00:16:02;8.30;;;7.57;;
79261;SDS011;68699;48.220;16.358;2024-03-22T00:18:28;7.83;;;7.13;;
79261;SDS011;68699;48.220;16.358;2024-03-22T00:20:54;8.60;;;7.80;;
79261;SDS011;68699;48.220;16.358;2024-03-22T00:23:20;11.50;;;8.60;;
79261;SDS011;68699;48.220;16.358;2024-03-22T00:25:46;8.63;;;7.83;;
79261;SDS011;68699;48.220;16.358;2024-03-22T00:28:12;8.77;;;7.90;;
79261;SDS011;68699;48.220;16.358;2024-03-22T00:30:38;9.50;;;8.60;;
79261;SDS011;68699;48.220;16.358;2024-03-22T00:33:04;9.37;;;8.57;;
79261;SDS011;68699;48.220;16.358;2024-03-22T00:35:31;9.47;;;8.53;;
79261;SDS011;68699;48.220;16.358;2024-03-22T00:37:57;9.47;;;8.53;;
79261;SDS011;68699;48.220;16.358;2024-03-22T00:40:22;9.70;;;8.80;;
79261;SDS011;68699;48.220;16.358;2024-03-22T00:42:48;8.90;;;8.10;;
79261;SDS011;68699;48.220;16.358;2024-03-22T00:45:15;9.47;;;8.57;;
79261;SDS011;68699;48.220;16.358;2024-03-22T00:47:41;9.77;;;8.87;;
79261;SDS011;68699;48.220;16.358;2024-03-22T00:50:07;10.37;;;9.27;;
79261;SDS011;68699;48.220;16.358;2024-03-22T00:52:33;10.43;;;9.43;;
79261;SDS011;68699;48.220;16.358;2024-03-22T00:54:59;9.93;;;8.93;;
79261;SDS011;68699;48.220;16.358;2024-03-22T00:57:25;10.67;;;9.67;;
79261;SDS011;68699;48.220;16.358;2024-03-22T00:59:51;10.83;;;9.73;;
79261;SDS011;68699;48.220;16.358;2024-03-22T01:02:17;10.60;;;9.70;;
79261;SDS011;68699;48.220;16.358;2024-03-22T01:04:43;10.97;;;9.97;;
79261;SDS011;68699;48.220;16.358;2024-03-22T01:07:09;10.80;;;9.80;;
79261;SDS011;68699;48.220;16.358;2024-03-22T01:09:35;10.67;;;9.73;;
79261;SDS011;68699;48.220;16.358;2024-03-22T01:12:01;10.97;;;9.93;;
79261;SDS011;68699;48.220;16.358;2024-03-22T01:14:27;11.23;;;10.13;;
79261;SDS011;68699;48.220;16.358;2024-03-22T01:16:53;11.33;;;10.13;;
79261;SDS011;68699;48.220;16.358;2024-03-22T01:19:20;10.93;;;9.93;;
79261;SDS011;68699;48.220;16.358;2024-03-22T01:21:47;11.23;;;10.23;;
79261;SDS011;68699;48.220;16.358;2024-03-22T01:24:13;13.30;;;10.60;;
79261;SDS011;68699;48.220;16.358;2024-03-22T01:26:39;11.80;;;10.73;;
79261;SDS011;68699;48.220;16.358;2024-03-22T01:29:06;12.20;;;10.90;;
79261;SDS011;68699;48.220;16.358;2024-03-22T01:31:32;12.00;;;10.90;;
79261;SDS011;68699;48.220;16.358;2024-03-22T01:33:58;11.77;;;10.67;;
79261;SDS011;68699;48.220;16.358;2024-03-22T01:36:24;11.77;;;10.67;;
79261;SDS011;68699;48.220;16.358;2024-03-22T01:38:50;12.07;;;10.90;;
79261;SDS011;68699;48.220;16.358;2024-03-22T01:41:16;12.83;;;11.63;;
79261;SDS011;68699;48.220;16.358;2024-03-22T01:43:43;12.77;;;11.47;;
79261;SDS011;68699;48.220;16.358;2024-03-22T01:46:09;12.03;;;10.93;;
79261;SDS011;68699;48.220;16.358;2024-03-22T01:48:35;12.63;;;11.43;;
79261;SDS011;68699;48.220;16.358;2024-03-22T01:51:02;11.97;;;10.73;;
79261;SDS011;68699;48.220;16.358;2024-03-22T01:53:28;12.33;;;11.13;;
79261;SDS011;68699;48.220;16.358;2024-03-22T01:55:54;12.67;;;11.43;;
79261;SDS011;68699;48.220;16.358;2024-03-22T01:58:20;12.70;;;11.50;;
79261;SDS011;68699;48.220;16.358;2024-03-22T02:00:47;12.43;;;11.23;;
79261;SDS011;68699;48.220;16.358;2024-03-22T02:03:13;12.70;;;11.40;;
79261;SDS011;68699;48.220;16.358;2024-03-22T02:05:39;12.40;;;11.23;;
79261;SDS011;68699;48.220;16.358;2024-03-22T02:08:05;12.60;;;11.40;;
79261;SDS011;68699;48.220;16.358;2024-03-22T02:10:31;13.10;;;11.90;;
79261;SDS011;68699;48.220;16.358;2024-03-22T02:12:57;13.47;;;12.07;;
79261;SDS011;68699;48.220;16.358;2024-03-22T02:15:23;13.43;;;12.17;;
79261;SDS011;68699;48.220;16.358;2024-03-22T02:17:49;14.00;;;12.60;;
79261;SDS011;68699;48.220;16.358;2024-03-22T02:20:15;13.63;;;12.33;;
79261;SDS011;68699;48.220;16.358;2024-03-22T02:22:41;14.03;;;12.70;;
79261;SDS011;68699;48.220;16.358;2024-03-22T02:25:07;13.30;;;12.03;;
79261;SDS011;68699;48.220;16.358;2024-03-22T02:27:34;13.73;;;12.43;;
79261;SDS011;68699;48.220;16.358;2024-03-22T02:30:00;13.10;;;11.80;;
79261;SDS011;68699;48.220;16.358;2024-03-22T02:32:27;14.47;;;13.07;;
79261;SDS011;68699;48.220;16.358;2024-03-22T02:34:53;13.87;;;12.53;;
79261;SDS011;68699;48.220;16.358;2024-03-22T02:37:19;13.80;;;12.50;;
79261;SDS011;68699;48.220;16.358;2024-03-22T02:39:45;13.40;;;12.00;;
79261;SDS011;68699;48.220;16.358;2024-03-22T02:42:11;13.60;;;12.33;;
79261;SDS011;68699;48.220;16.358;2024-03-22T02:44:37;14.03;;;12.63;;
79261;SDS011;68699;48.220;16.358;2024-03-22T02:47:07;14.50;;;13.10;;
79261;SDS011;68699;48.220;16.358;2024-03-22T02:49:33;14.20;;;12.90;;
79261;SDS011;68699;48.220;16.358;2024-03-22T02:51:59;13.40;;;12.10;;
79261;SDS011;68699;48.220;16.358;2024-03-22T02:54:25;12.97;;;11.67;;
79261;SDS011;68699;48.220;16.358;2024-03-22T02:56:51;13.87;;;12.47;;
79261;SDS011;68699;48.220;16.358;2024-03-22T02:59:17;14.10;;;12.70;;
79261;SDS011;68699;48.220;16.358;2024-03-22T03:01:43;14.07;;;12.67;;
79261;SDS011;68699;48.220;16.358;2024-03-22T03:04:09;13.90;;;12.60;;
79261;SDS011;68699;48.220;16.358;2024-03-22T03:06:35;13.77;;;12.37;;
79261;SDS011;68699;48.220;16.358;2024-03-22T03:09:01;12.97;;;11.67;;
79261;SDS011;68699;48.220;16.358;2024-03-22T03:11:30;13.63;;;12.20;;
79261;SDS011;68699;48.220;16.358;2024-03-22T03:13:56;13.87;;;12.47;;
79261;SDS011;68699;48.220;16.358;2024-03-22T03:16:22;13.90;;;12.50;;
79261;SDS011;68699;48.220;16.358;2024-03-22T03:18:48;14.27;;;12.77;;
79261;SDS011;68699;48.220;16.358;2024-03-22T03:21:14;14.20;;;12.03;;
79261;SDS011;68699;48.220;16.358;2024-03-22T03:23:40;13.63;;;12.33;;
79261;SDS011;68699;48.220;16.358;2024-03-22T03:26:06;13.83;;;12.37;;
79261;SDS011;68699;48.220;16.358;2024-03-22T03:28:32;14.13;;;12.63;;
79261;SDS011;68699;48.220;16.358;2024-03-22T03:30:58;13.93;;;12.47;;
79261;SDS011;68699;48.220;16.358;2024-03-22T03:33:24;13.57;;;12.17;;
79261;SDS011;68699;48.220;16.358;2024-03-22T03:35:50;14.00;;;12.60;;
79261;SDS011;68699;48.220;16.358;2024-03-22T03:38:17;13.50;;;12.17;;
79261;SDS011;68699;48.220;16.358;2024-03-22T03:40:43;14.33;;;12.83;;
79261;SDS011;68699;48.220;16.358;2024-03-22T03:43:09;14.67;;;13.17;;
79261;SDS011;68699;48.220;16.358;2024-03-22T03:45:36;15.10;;;13.50;;
79261;SDS011;68699;48.220;16.358;2024-03-22T03:48:02;14.40;;;12.90;;
79261;SDS011;68699;48.220;16.358;2024-03-22T03:50:28;14.17;;;12.77;;
79261;SDS011;68699;48.220;16.358;2024-03-22T03:52:54;13.63;;;12.33;;
79261;SDS011;68699;48.220;16.358;2024-03-22T03:55:21;13.37;;;11.97;;
79261;SDS011;68699;48.220;16.358;2024-03-22T03:57:49;13.00;;;11.80;;
79261;SDS011;68699;48.220;16.358;2024-03-22T04:00:15;15.03;;;13.43;;
79261;SDS011;68699;48.220;16.358;2024-03-22T04:02:41;13.60;;;12.27;;
79261;SDS011;68699;48.220;16.358;2024-03-22T04:05:07;13.57;;;12.17;;
79261;SDS011;68699;48.220;16.358;2024-03-22T04:07:33;13.73;;;12.27;;
79261;SDS011;68699;48.220;16.358;2024-03-22T04:09:59;13.90;;;12.40;;
79261;SDS011;68699;48.220;16.358;2024-03-22T04:12:26;14.30;;;12.90;;
79261;SDS011;68699;48.220;16.358;2024-03-22T04:14:52;15.60;;;13.13;;
79261;SDS011;68699;48.220;16.358;2024-03-22T04:17:18;13.90;;;12.60;;
79261;SDS011;68699;48.220;16.358;2024-03-22T04:19:44;13.73;;;12.23;;
79261;SDS011;68699;48.220;16.358;2024-03-22T04:22:10;14.77;;;13.27;;
79261;SDS011;68699;48.220;16.358;2024-03-22T04:24:36;14.90;;;13.40;;
79261;SDS011;68699;48.220;16.358;2024-03-22T04:27:02;14.07;;;12.67;;
79261;SDS011;68699;48.220;16.358;2024-03-22T04:29:28;13.27;;;11.97;;
79261;SDS011;68699;48.220;16.358;2024-03-22T04:31:54;14.50;;;13.00;;
79261;SDS011;68699;48.220;16.358;2024-03-22T04:34:20;14.30;;;12.73;;
79261;SDS011;68699;48.220;16.358;2024-03-22T04:36:46;14.87;;;13.33;;
79261;SDS011;68699;48.220;16.358;2024-03-22T04:39:12;13.53;;;12.23;;
79261;SDS011;68699;48.220;16.358;2024-03-22T04:41:39;14.43;;;12.87;;
79261;SDS011;68699;48.220;16.358;2024-03-22T04:44:05;14.20;;;12.80;;
79261;SDS011;68699;48.220;16.358;2024-03-22T04:46:31;13.70;;;12.30;;
79261;SDS011;68699;48.220;16.358;2024-03-22T04:48:57;13.37;;;12.00;;
79261;SDS011;68699;48.220;16.358;2024-03-22T04:51:23;16.83;;;13.67;;
79261;SDS011;68699;48.220;16.358;2024-03-22T04:53:49;13.33;;;11.97;;
79261;SDS011;68699;48.220;16.358;2024-03-22T04:56:15;13.63;;;12.30;;
79261;SDS011;68699;48.220;16.358;2024-03-22T04:58:41;14.10;;;12.70;;
79261;SDS011;68699;48.220;16.358;2024-03-22T05:01:07;13.77;;;12.37;;
79261;SDS011;68699;48.220;16.358;2024-03-22T05:03:33;13.67;;;12.27;;
79261;SDS011;68699;48.220;16.358;2024-03-22T05:05:59;13.23;;;11.93;;
79261;SDS011;68699;48.220;16.358;2024-03-22T05:08:28;13.97;;;12.57;;
79261;SDS011;68699;48.220;16.358;2024-03-22T05:10:54;13.10;;;11.80;;
79261;SDS011;68699;48.220;16.358;2024-03-22T05:13:20;12.87;;;11.67;;
79261;SDS011;68699;48.220;16.358;2024-03-22T05:15:46;14.10;;;12.70;;
79261;SDS011;68699;48.220;16.358;2024-03-22T05:18:12;13.73;;;12.33;;
79261;SDS011;68699;48.220;16.358;2024-03-22T05:20:38;13.90;;;12.27;;
79261;SDS011;68699;48.220;16.358;2024-03-22T05:23:04;12.73;;;11.47;;
79261;SDS011;68699;48.220;16.358;2024-03-22T05:25:30;13.10;;;11.80;;
79261;SDS011;68699;48.220;16.358;2024-03-22T05:27:56;13.40;;;11.97;;
79261;SDS011;68699;48.220;16.358;2024-03-22T05:30:22;13.40;;;11.67;;
79261;SDS011;68699;48.220;16.358;2024-03-22T05:32:48;12.90;;;11.60;;
79261;SDS011;68699;48.220;16.358;2024-03-22T05:35:15;12.03;;;10.73;;
79261;SDS011;68699;48.220;16.358;2024-03-22T05:37:41;11.83;;;10.63;;
79261;SDS011;68699;48.220;16.358;2024-03-22T05:40:07;11.87;;;10.67;;
79261;SDS011;68699;48.220;16.358;2024-03-22T05:42:34;12.60;;;11.30;;
79261;SDS011;68699;48.220;16.358;2024-03-22T05:45:00;12.57;;;11.27;;
79261;SDS011;68699;48.220;16.358;2024-03-22T05:47:26;12.93;;;11.33;;
79261;SDS011;68699;48.220;16.358;2024-03-22T05:49:52;12.37;;;11.17;;
79261;SDS011;68699;48.220;16.358;2024-03-22T05:52:18;13.30;;;11.20;;
79261;SDS011;68699;48.220;16.358;2024-03-22T05:54:44;12.97;;;11.07;;
79261;SDS011;68699;48.220;16.358;2024-03-22T05:57:11;12.53;;;11.13;;
79261;SDS011;68699;48.220;16.358;2024-03-22T05:59:37;12.73;;;11.37;;
79261;SDS011;68699;48.220;16.358;2024-03-22T06:02:03;13.20;;;11.80;;
79261;SDS011;68699;48.220;16.358;2024-03-22T06:04:29;14.07;;;11.90;;
79261;SDS011;68699;48.220;16.358;2024-03-22T06:06:55;13.43;;;12.07;;
79261;SDS011;68699;48.220;16.358;2024-03-22T06:09:21;12.97;;;11.67;;
79261;SDS011;68699;48.220;16.358;2024-03-22T06:11:59;13.87;;;12.23;;
79261;SDS011;68699;48.220;16.358;2024-03-22T06:14:25;14.43;;;12.93;;
79261;SDS011;68699;48.220;16.358;2024-03-22T06:16:51;14.40;;;12.63;;
79261;SDS011;68699;48.220;16.358;2024-03-22T06:19:17;15.90;;;13.27;;
79261;SDS011;68699;48.220;16.358;2024-03-22T06:21:43;16.57;;;13.67;;
79261;SDS011;68699;48.220;16.358;2024-03-22T06:24:09;16.17;;;13.70;;
79261;SDS011;68699;48.220;16.358;2024-03-22T06:26:35;17.93;;;14.50;;
79261;SDS011;68699;48.220;16.358;2024-03-22T06:29:01;17.07;;;14.53;;
79261;SDS011;68699;48.220;16.358;2024-03-22T06:31:27;17.00;;;14.97;;
79261;SDS011;68699;48.220;16.358;2024-03-22T06:33:54;17.07;;;14.30;;
79261;SDS011;68699;48.220;16.358;2024-03-22T06:36:21;16.67;;;13.77;;
79261;SDS011;68699;48.220;16.358;2024-03-22T06:38:47;16.67;;;14.87;;
79261;SDS011;68699;48.220;16.358;2024-03-22T06:41:13;17.73;;;15.20;;
79261;SDS011;68699;48.220;16.358;2024-03-22T06:43:39;16.73;;;14.93;;
79261;SDS011;68699;48.220;16.358;2024-03-22T06:46:06;16.60;;;14.87;;
79261;SDS011;68699;48.220;16.358;2024-03-22T06:48:32;18.00;;;15.80;;
79261;SDS011;68699;48.220;16.358;2024-03-22T06:51:00;16.03;;;14.33;;
79261;SDS011;68699;48.220;16.358;2024-03-22T06:53:26;19.37;;;15.10;;
79261;SDS011;68699;48.220;16.358;2024-03-22T06:55:52;15.13;;;13.57;;
79261;SDS011;68699;48.220;16.358;2024-03-22T06:58:18;17.67;;;15.63;;
79261;SDS011;68699;48.220;16.358;2024-03-22T07:00:44;17.80;;;15.77;;
79261;SDS011;68699;48.220;16.358;2024-03-22T07:03:10;20.80;;;15.53;;
79261;SDS011;68699;48.220;16.358;2024-03-22T07:05:36;17.43;;;14.60;;
79261;SDS011;68699;48.220;16.358;2024-03-22T07:08:02;17.40;;;15.40;;
79261;SDS011;68699;48.220;16.358;2024-03-22T07:10:29;18.03;;;15.23;;
79261;SDS011;68699;48.220;16.358;2024-03-22T07:12:56;17.57;;;15.33;;
79261;SDS011;68699;48.220;16.358;2024-03-22T07:15:23;18.77;;;16.07;;
79261;SDS011;68699;48.220;16.358;2024-03-22T07:17:49;17.90;;;14.70;;
79261;SDS011;68699;48.220;16.358;2024-03-22T07:20:16;18.27;;;16.30;;
79261;SDS011;68699;48.220;16.358;2024-03-22T07:22:42;17.63;;;15.63;;
79261;SDS011;68699;48.220;16.358;2024-03-22T07:25:08;18.77;;;15.67;;
79261;SDS011;68699;48.220;16.358;2024-03-22T07:27:37;16.57;;;14.80;;
79261;SDS011;68699;48.220;16.358;2024-03-22T07:30:03;19.37;;;16.03;;
79261;SDS011;68699;48.220;16.358;2024-03-22T07:32:30;18.13;;;16.10;;
79261;SDS011;68699;48.220;16.358;2024-03-22T07:34:56;17.60;;;15.77;;
79261;SDS011;68699;48.220;16.358;2024-03-22T07:37:22;17.60;;;15.63;;
79261;SDS011;68699;48.220;16.358;2024-03-22T07:39:48;19.60;;;15.90;;
79261;SDS011;68699;48.220;16.358;2024-03-22T07:42:14;19.73;;;16.27;;
79261;SDS011;68699;48.220;16.358;2024-03-22T07:44:40;16.80;;;14.97;;
79261;SDS011;68699;48.220;16.358;2024-03-22T07:47:06;20.17;;;16.63;;
79261;SDS011;68699;48.220;16.358;2024-03-22T07:49:32;19.80;;;16.97;;
79261;SDS011;68699;48.220;16.358;2024-03-22T07:51:59;19.93;;;16.50;;
79261;SDS011;68699;48.220;16.358;2024-03-22T07:54:25;20.77;;;16.77;;
79261;SDS011;68699;48.220;16.358;2024-03-22T07:56:51;18.17;;;16.03;;
79261;SDS011;68699;48.220;16.358;2024-03-22T07:59:17;19.93;;;16.33;;
79261;SDS011;68699;48.220;16.358;2024-03-22T08:01:44;18.57;;;15.90;;
79261;SDS011;68699;48.220;16.358;2024-03-22T08:04:10;19.03;;;15.70;;
79261;SDS011;68699;48.220;16.358;2024-03-22T08:06:39;19.57;;;16.20;;
79261;SDS011;68699;48.220;16.358;2024-03-22T08:09:05;18.70;;;15.73;;
79261;SDS011;68699;48.220;16.358;2024-03-22T08:11:32;17.93;;;15.57;;
79261;SDS011;68699;48.220;16.358;2024-03-22T08:13:58;18.50;;;15.70;;
79261;SDS011;68699;48.220;16.358;2024-03-22T08:16:31;17.77;;;14.83;;
79261;SDS011;68699;48.220;16.358;2024-03-22T08:18:57;18.57;;;14.70;;
79261;SDS011;68699;48.220;16.358;2024-03-22T08:21:23;16.03;;;14.07;;
79261;SDS011;68699;48.220;16.358;2024-03-22T08:23:50;19.63;;;15.10;;
79261;SDS011;68699;48.220;16.358;2024-03-22T08:26:16;17.03;;;14.33;;
79261;SDS011;68699;48.220;16.358;2024-03-22T08:28:43;16.97;;;14.37;;
79261;SDS011;68699;48.220;16.358;2024-03-22T08:31:10;17.67;;;14.43;;
79261;SDS011;68699;48.220;16.358;2024-03-22T08:33:36;17.50;;;14.77;;
79261;SDS011;68699;48.220;16.358;2024-03-22T08:36:02;16.83;;;14.70;;
79261;SDS011;68699;48.220;16.358;2024-03-22T08:38:28;17.10;;;13.93;;
79261;SDS011;68699;48.220;16.358;2024-03-22T08:40:54;16.53;;;13.93;;
79261;SDS011;68699;48.220;16.358;2024-03-22T08:43:20;18.63;;;14.80;;
79261;SDS011;68699;48.220;16.358;2024-03-22T08:45:54;16.77;;;14.17;;
79261;SDS011;68699;48.220;16.358;2024-03-22T08:48:20;17.13;;;13.73;;
79261;SDS011;68699;48.220;16.358;2024-03-22T08:50:46;16.90;;;13.83;;
79261;SDS011;68699;48.220;16.358;2024-03-22T08:53:12;15.90;;;14.20;;
79261;SDS011;68699;48.220;16.358;2024-03-22T08:55:44;16.13;;;13.90;;
79261;SDS011;68699;48.220;16.358;2024-03-22T08:58:11;18.03;;;14.33;;
79261;SDS011;68699;48.220;16.358;2024-03-22T09:00:37;16.00;;;14.07;;
79261;SDS011;68699;48.220;16.358;2024-03-22T09:03:03;15.30;;;13.53;;
79261;SDS011;68699;48.220;16.358;2024-03-22T09:05:29;17.07;;;14.07;;
79261;SDS011;68699;48.220;16.358;2024-03-22T09:07:55;16.30;;;13.53;;
79261;SDS011;68699;48.220;16.358;2024-03-22T09:10:22;14.33;;;12.70;;
79261;SDS011;68699;48.220;16.358;2024-03-22T09:12:48;15.17;;;13.23;;
79261;SDS011;68699;48.220;16.358;2024-03-22T09:15:14;17.17;;;13.20;;
79261;SDS011;68699;48.220;16.358;2024-03-22T09:17:40;14.33;;;12.80;;
79261;SDS011;68699;48.220;16.358;2024-03-22T09:20:06;16.27;;;12.47;;
79261;SDS011;68699;48.220;16.358;2024-03-22T09:22:32;14.47;;;12.40;;
79261;SDS011;68699;48.220;16.358;2024-03-22T09:24:59;14.33;;;12.67;;
79261;SDS011;68699;48.220;16.358;2024-03-22T09:27:25;14.07;;;12.53;;
79261;SDS011;68699;48.220;16.358;2024-03-22T09:29:51;15.50;;;12.90;;
79261;SDS011;68699;48.220;16.358;2024-03-22T09:32:18;13.53;;;11.83;;
79261;SDS011;68699;48.220;16.358;2024-03-22T09:34:44;15.70;;;12.77;;
79261;SDS011;68699;48.220;16.358;2024-03-22T09:37:10;15.37;;;12.23;;
79261;SDS011;68699;48.220;16.358;2024-03-22T09:39:36;12.90;;;11.53;;
79261;SDS011;68699;48.220;16.358;2024-03-22T09:42:02;15.40;;;12.20;;
79261;SDS011;68699;48.220;16.358;2024-03-22T09:44:31;13.93;;;11.80;;
79261;SDS011;68699;48.220;16.358;2024-03-22T09:46:59;13.33;;;11.57;;
79261;SDS011;68699;48.220;16.358;2024-03-22T09:49:25;13.03;;;11.73;;
79261;SDS011;68699;48.220;16.358;2024-03-22T09:51:51;12.70;;;11.30;;
79261;SDS011;68699;48.220;16.358;2024-03-22T09:54:18;12.43;;;11.13;;
79261;SDS011;68699;48.220;16.358;2024-03-22T09:56:44;11.90;;;10.63;;
79261;SDS011;68699;48.220;16.358;2024-03-22T09:59:14;12.90;;;10.83;;
79261;SDS011;68699;48.220;16.358;2024-03-22T10:01:40;11.27;;;10.10;;
79261;SDS011;68699;48.220;16.358;2024-03-22T10:04:07;11.53;;;10.13;;
79261;SDS011;68699;48.220;16.358;2024-03-22T10:06:34;11.43;;;10.13;;
79261;SDS011;68699;48.220;16.358;2024-03-22T10:09:01;11.07;;;9.97;;
79261;SDS011;68699;48.220;16.358;2024-03-22T10:11:28;11.17;;;9.97;;
79261;SDS011;68699;48.220;16.358;2024-03-22T10:13:54;11.50;;;9.97;;
79261;SDS011;68699;48.220;16.358;2024-03-22T10:16:21;11.63;;;9.53;;
79261;SDS011;68699;48.220;16.358;2024-03-22T10:18:47;12.53;;;9.33;;
79261;SDS011;68699;48.220;16.358;2024-03-22T10:21:16;10.87;;;9.50;;
79261;SDS011;68699;48.220;16.358;2024-03-22T10:23:43;9.47;;;8.43;;
79261;SDS011;68699;48.220;16.358;2024-03-22T10:26:09;10.53;;;8.83;;
79261;SDS011;68699;48.220;16.358;2024-03-22T10:28:35;9.47;;;8.43;;
79261;SDS011;68699;48.220;16.358;2024-03-22T10:31:01;10.80;;;8.30;;
79261;SDS011;68699;48.220;16.358;2024-03-22T10:33:31;9.20;;;7.73;;
79261;SDS011;68699;48.220;16.358;2024-03-22T10:35:57;9.50;;;8.50;;
79261;SDS011;68699;48.220;16.358;2024-03-22T10:38:23;8.83;;;7.93;;
79261;SDS011;68699;48.220;16.358;2024-03-22T10:40:50;7.90;;;7.07;;
79261;SDS011;68699;48.220;16.358;2024-03-22T10:43:16;8.70;;;7.80;;
79261;SDS011;68699;48.220;16.358;2024-03-22T10:45:42;7.53;;;6.83;;
79261;SDS011;68699;48.220;16.358;2024-03-22T10:48:09;8.63;;;7.60;;
79261;SDS011;68699;48.220;16.358;2024-03-22T10:50:36;8.73;;;7.87;;
79261;SDS011;68699;48.220;16.358;2024-03-22T10:53:04;8.87;;;7.97;;
79261;SDS011;68699;48.220;16.358;2024-03-22T10:55:33;8.90;;;7.53;;
79261;SDS011;68699;48.220;16.358;2024-03-22T10:57:59;9.93;;;7.57;;
79261;SDS011;68699;48.220;16.358;2024-03-22T11:00:31;8.50;;;7.27;;
79261;SDS011;68699;48.220;16.358;2024-03-22T11:02:58;8.13;;;6.93;;
79261;SDS011;68699;48.220;16.358;2024-03-22T11:05:25;7.37;;;6.67;;
79261;SDS011;68699;48.220;16.358;2024-03-22T11:10:30;8.20;;;7.40;;
79261;SDS011;68699;48.220;16.358;2024-03-22T11:13:00;7.77;;;6.80;;
79261;SDS011;68699;48.220;16.358;2024-03-22T11:15:28;7.80;;;7.00;;
79261;SDS011;68699;48.220;16.358;2024-03-22T11:17:54;7.83;;;7.03;;
79261;SDS011;68699;48.220;16.358;2024-03-22T11:20:20;8.13;;;7.33;;
79261;SDS011;68699;48.220;16.358;2024-03-22T11:22:46;9.43;;;7.57;;
79261;SDS011;68699;48.220;16.358;2024-03-22T11:25:12;7.33;;;6.60;;
79261;SDS011;68699;48.220;16.358;2024-03-22T11:27:38;9.70;;;7.37;;
79261;SDS011;68699;48.220;16.358;2024-03-22T11:30:05;7.60;;;6.90;;
79261;SDS011;68699;48.220;16.358;2024-03-22T11:32:33;8.10;;;7.30;;
79261;SDS011;68699;48.220;16.358;2024-03-22T11:35:09;8.97;;;7.07;;
79261;SDS011;68699;48.220;16.358;2024-03-22T11:37:36;8.00;;;7.20;;
79261;SDS011;68699;48.220;16.358;2024-03-22T11:40:02;7.17;;;6.47;;
79261;SDS011;68699;48.220;16.358;2024-03-22T11:42:31;7.37;;;6.67;;
79261;SDS011;68699;48.220;16.358;2024-03-22T11:44:57;6.40;;;5.80;;
79261;SDS011;68699;48.220;16.358;2024-03-22T11:47:23;6.70;;;6.00;;
79261;SDS011;68699;48.220;16.358;2024-03-22T11:49:50;6.57;;;5.80;;
79261;SDS011;68699;48.220;16.358;2024-03-22T11:52:16;6.47;;;5.87;;
79261;SDS011;68699;48.220;16.358;2024-03-22T11:54:42;7.10;;;6.20;;
79261;SDS011;68699;48.220;16.358;2024-03-22T11:57:11;7.37;;;6.00;;
79261;SDS011;68699;48.220;16.358;2024-03-22T11:59:40;7.77;;;6.37;;
79261;SDS011;68699;48.220;16.358;2024-03-22T12:02:06;6.50;;;5.90;;
79261;SDS011;68699;48.220;16.358;2024-03-22T12:04:34;8.43;;;6.43;;
79261;SDS011;68699;48.220;16.358;2024-03-22T12:07:00;7.13;;;6.10;;
79261;SDS011;68699;48.220;16.358;2024-03-22T12:09:26;7.57;;;6.60;;
79261;SDS011;68699;48.220;16.358;2024-03-22T12:11:54;7.53;;;6.73;;
79261;SDS011;68699;48.220;16.358;2024-03-22T12:14:20;7.63;;;6.80;;
79261;SDS011;68699;48.220;16.358;2024-03-22T12:16:46;7.37;;;6.63;;
79261;SDS011;68699;48.220;16.358;2024-03-22T12:19:12;7.07;;;6.37;;
79261;SDS011;68699;48.220;16.358;2024-03-22T12:21:38;6.90;;;6.20;;
79261;SDS011;68699;48.220;16.358;2024-03-22T12:24:05;6.33;;;5.73;;
79261;SDS011;68699;48.220;16.358;2024-03-22T12:26:31;5.93;;;5.33;;
79261;SDS011;68699;48.220;16.358;2024-03-22T12:28:57;7.17;;;5.87;;
79261;SDS011;68699;48.220;16.358;2024-03-22T12:31:24;9.33;;;5.80;;
79261;SDS011;68699;48.220;16.358;2024-03-22T12:33:50;6.23;;;5.60;;
79261;SDS011;68699;48.220;16.358;2024-03-22T12:36:16;6.80;;;6.10;;
79261;SDS011;68699;48.220;16.358;2024-03-22T12:38:42;8.40;;;5.73;;
79261;SDS011;68699;48.220;16.358;2024-03-22T12:41:08;6.00;;;5.27;;
79261;SDS011;68699;48.220;16.358;2024-03-22T12:43:34;7.17;;;5.60;;
79261;SDS011;68699;48.220;16.358;2024-03-22T12:46:01;5.57;;;4.97;;
79261;SDS011;68699;48.220;16.358;2024-03-22T12:48:28;6.80;;;6.10;;
79261;SDS011;68699;48.220;16.358;2024-03-22T12:50:54;6.77;;;5.67;;
79261;SDS011;68699;48.220;16.358;2024-03-22T12:53:20;6.20;;;5.60;;
79261;SDS011;68699;48.220;16.358;2024-03-22T12:55:46;6.53;;;5.53;;
79261;SDS011;68699;48.220;16.358;2024-03-22T12:58:12;8.47;;;5.83;;
79261;SDS011;68699;48.220;16.358;2024-03-22T13:00:39;5.50;;;5.00;;
79261;SDS011;68699;48.220;16.358;2024-03-22T13:03:05;5.70;;;5.20;;
79261;SDS011;68699;48.220;16.358;2024-03-22T13:05:31;6.53;;;5.27;;
79261;SDS011;68699;48.220;16.358;2024-03-22T13:07:57;5.53;;;4.90;;
79261;SDS011;68699;48.220;16.358;2024-03-22T13:10:23;5.73;;;5.23;;
79261;SDS011;68699;48.220;16.358;2024-03-22T13:12:49;6.23;;;5.60;;
79261;SDS011;68699;48.220;16.358;2024-03-22T13:15:15;6.20;;;5.10;;
79261;SDS011;68699;48.220;16.358;2024-03-22T13:17:41;6.33;;;5.70;;
79261;SDS011;68699;48.220;16.358;2024-03-22T13:20:07;6.07;;;5.47;;
79261;SDS011;68699;48.220;16.358;2024-03-22T13:22:36;6.10;;;5.50;;
79261;SDS011;68699;48.220;16.358;2024-03-22T13:25:02;5.87;;;5.20;;
79261;SDS011;68699;48.220;16.358;2024-03-22T13:27:32;5.03;;;4.50;;
79261;SDS011;68699;48.220;16.358;2024-03-22T13:29:58;6.77;;;4.77;;
79261;SDS011;68699;48.220;16.358;2024-03-22T13:32:25;5.37;;;4.70;;
79261;SDS011;68699;48.220;16.358;2024-03-22T13:34:51;5.80;;;5.30;;
79261;SDS011;68699;48.220;16.358;2024-03-22T13:37:17;5.60;;;5.10;;
79261;SDS011;68699;48.220;16.358;2024-03-22T13:39:43;5.83;;;5.20;;
79261;SDS011;68699;48.220;16.358;2024-03-22T13:42:09;5.77;;;4.87;;
79261;SDS011;68699;48.220;16.358;2024-03-22T13:44:35;5.87;;;5.27;;
79261;SDS011;68699;48.220;16.358;2024-03-22T13:47:01;5.40;;;4.87;;
79261;SDS011;68699;48.220;16.358;2024-03-22T13:49:29;5.27;;;4.47;;
79261;SDS011;68699;48.220;16.358;2024-03-22T13:51:57;5.10;;;4.60;;
79261;SDS011;68699;48.220;16.358;2024-03-22T13:54:24;5.47;;;4.97;;
79261;SDS011;68699;48.220;16.358;2024-03-22T13:56:50;4.97;;;4.50;;
79261;SDS011;68699;48.220;16.358;2024-03-22T13:59:16;5.20;;;4.70;;
79261;SDS011;68699;48.220;16.358;2024-03-22T14:01:42;5.40;;;4.83;;
79261;SDS011;68699;48.220;16.358;2024-03-22T14:04:10;5.00;;;4.53;;
79261;SDS011;68699;48.220;16.358;2024-03-22T14:06:37;5.70;;;4.90;;
79261;SDS011;68699;48.220;16.358;2024-03-22T14:09:03;4.97;;;4.57;;
79261;SDS011;68699;48.220;16.358;2024-03-22T14:11:32;4.53;;;4.13;;
79261;SDS011;68699;48.220;16.358;2024-03-22T14:13:59;4.30;;;3.83;;
79261;SDS011;68699;48.220;16.358;2024-03-22T14:16:25;4.97;;;4.40;;